createdAt,value
2019-03-08T00:01:18.450Z,18.62
2019-03-08T00:03:45.414Z,18.63
2019-03-08T00:06:12.727Z,18.63
2019-03-08T00:08:39.650Z,18.61
2019-03-08T00:11:06.625Z,18.63
2019-03-08T00:13:33.573Z,18.64
2019-03-08T00:16:00.874Z,18.64
2019-03-08T00:18:27.850Z,18.64
2019-03-08T00:20:54.786Z,18.64
2019-03-08T00:23:21.741Z,18.63
2019-03-08T00:25:49.699Z,18.60
2019-03-08T00:28:16.995Z,18.58
2019-03-08T00:30:44.233Z,18.56
2019-03-08T00:33:11.188Z,18.55
2019-03-08T00:35:38.173Z,18.55
2019-03-08T00:38:05.119Z,18.55
2019-03-08T00:40:32.433Z,18.54
2019-03-08T00:43:00.089Z,18.49
2019-03-08T00:45:27.045Z,18.46
2019-03-08T00:47:53.983Z,18.44
2019-03-08T00:50:20.892Z,18.41
2019-03-08T00:52:48.184Z,18.37
2019-03-08T00:55:15.164Z,18.36
2019-03-08T00:57:42.691Z,18.38
2019-03-08T01:00:09.810Z,18.41
2019-03-08T01:02:36.679Z,18.38
2019-03-08T01:05:04.046Z,18.37
2019-03-08T01:07:31.293Z,18.36
2019-03-08T01:09:58.554Z,18.37
2019-03-08T01:12:25.796Z,18.32
2019-03-08T01:14:52.742Z,18.27
2019-03-08T01:17:20.308Z,18.23
2019-03-08T01:19:47.277Z,18.22
2019-03-08T01:22:14.241Z,18.26
2019-03-08T01:24:41.556Z,18.26
2019-03-08T01:27:08.796Z,18.26
2019-03-08T01:29:36.068Z,18.27
2019-03-08T01:32:03.043Z,18.25
2019-03-08T01:34:29.993Z,18.23
2019-03-08T01:36:56.973Z,18.18
2019-03-08T01:39:23.906Z,18.18
2019-03-08T01:41:50.845Z,18.16
2019-03-08T01:44:18.042Z,18.18
2019-03-08T01:46:44.998Z,18.21
2019-03-08T01:49:11.974Z,18.21
2019-03-08T01:51:38.932Z,18.22
2019-03-08T01:54:05.869Z,18.18
2019-03-08T01:56:32.819Z,18.19
2019-03-08T01:58:59.798Z,18.20
2019-03-08T02:01:26.776Z,18.22
2019-03-08T02:03:53.722Z,18.25
2019-03-08T02:06:20.688Z,18.23
2019-03-08T02:08:48.016Z,18.24
2019-03-08T02:11:15.000Z,18.26
2019-03-08T02:13:41.964Z,18.27
2019-03-08T02:16:09.270Z,18.26
2019-03-08T02:18:36.212Z,18.24
2019-03-08T02:21:06.811Z,18.22
2019-03-08T02:23:31.742Z,18.21
2019-03-08T02:25:58.717Z,18.16
2019-03-08T02:28:25.661Z,18.16
2019-03-08T02:30:52.863Z,18.19
2019-03-08T02:33:19.817Z,18.23
2019-03-08T02:35:46.766Z,18.27
2019-03-08T02:38:14.023Z,18.25
2019-03-08T02:40:41.316Z,18.29
2019-03-08T02:43:08.629Z,18.31
2019-03-08T02:45:35.500Z,18.33
2019-03-08T02:48:02.930Z,18.37
2019-03-08T02:50:30.286Z,18.38
2019-03-08T02:52:57.272Z,18.37
2019-03-08T02:55:24.584Z,18.37
2019-03-08T02:57:52.129Z,18.37
2019-03-08T03:00:19.389Z,18.34
2019-03-08T03:02:47.425Z,18.34
2019-03-08T03:05:14.470Z,18.32
2019-03-08T03:07:42.420Z,18.33
2019-03-08T03:10:09.427Z,18.34
2019-03-08T03:12:36.625Z,18.34
2019-03-08T03:15:03.555Z,18.30
2019-03-08T03:17:30.497Z,18.25
2019-03-08T03:19:57.752Z,18.20
2019-03-08T03:22:24.712Z,18.25
2019-03-08T03:24:51.652Z,18.25
2019-03-08T03:27:18.610Z,18.27
2019-03-08T03:29:45.886Z,18.23
2019-03-08T03:32:13.482Z,18.26
2019-03-08T03:34:40.434Z,18.24
2019-03-08T03:37:07.682Z,18.26
2019-03-08T03:39:34.613Z,18.28
2019-03-08T03:42:01.588Z,18.26
2019-03-08T03:44:28.552Z,18.21
2019-03-08T03:46:55.965Z,18.20
2019-03-08T03:49:22.958Z,18.21
2019-03-08T03:51:49.913Z,18.23
2019-03-08T03:54:18.143Z,18.22
2019-03-08T03:56:45.108Z,18.18
2019-03-08T03:59:12.353Z,18.14
2019-03-08T04:01:39.319Z,18.13
2019-03-08T04:06:38.905Z,18.18
2019-03-08T04:09:05.847Z,18.13
2019-03-08T04:11:32.797Z,18.16
2019-03-08T04:13:59.750Z,18.18
2019-03-08T04:16:27.012Z,18.13
2019-03-08T04:18:54.883Z,18.10
2019-03-08T04:21:21.825Z,18.11
2019-03-08T04:23:49.179Z,18.10
2019-03-08T04:26:16.125Z,18.13
2019-03-08T04:28:43.111Z,18.10
2019-03-08T04:31:10.421Z,18.12
2019-03-08T04:33:38.449Z,18.15
2019-03-08T04:36:06.877Z,18.18
2019-03-08T04:38:33.797Z,18.16
2019-03-08T04:41:01.326Z,18.14
2019-03-08T04:43:28.315Z,18.17
2019-03-08T04:45:55.247Z,18.19
2019-03-08T04:48:22.509Z,18.19
2019-03-08T04:50:49.762Z,18.20
2019-03-08T04:53:16.784Z,18.21
2019-03-08T04:55:44.072Z,18.19
2019-03-08T04:58:11.041Z,18.20
2019-03-08T05:00:38.033Z,18.22
2019-03-08T05:03:05.324Z,18.21
2019-03-08T05:05:32.280Z,18.19
2019-03-08T05:07:59.414Z,18.17
2019-03-08T05:10:26.772Z,18.11
2019-03-08T05:12:54.179Z,18.04
2019-03-08T05:15:25.183Z,18.05
2019-03-08T05:17:52.660Z,18.03
2019-03-08T05:20:22.677Z,17.99
2019-03-08T05:22:49.601Z,18.04
2019-03-08T05:25:16.646Z,18.09
2019-03-08T05:27:43.769Z,18.11
2019-03-08T05:30:10.846Z,18.16
2019-03-08T05:32:38.223Z,18.22
2019-03-08T05:35:05.168Z,18.25
2019-03-08T05:37:32.174Z,18.27
2019-03-08T05:39:59.448Z,18.26
2019-03-08T05:42:26.812Z,18.27
2019-03-08T05:44:54.186Z,18.25
2019-03-08T05:47:21.135Z,18.22
2019-03-08T05:49:48.083Z,18.19
2019-03-08T05:52:15.060Z,18.22
2019-03-08T05:54:42.350Z,18.24
2019-03-08T05:57:10.727Z,18.28
2019-03-08T05:59:37.935Z,18.27
2019-03-08T06:02:05.339Z,18.24
2019-03-08T06:04:33.926Z,18.27
2019-03-08T06:07:00.890Z,18.24
2019-03-08T06:09:27.893Z,18.22
2019-03-08T06:11:55.699Z,18.21
2019-03-08T06:14:22.692Z,18.25
2019-03-08T06:16:49.841Z,18.28
2019-03-08T06:19:16.822Z,18.28
2019-03-08T06:21:43.778Z,18.27
2019-03-08T06:24:10.742Z,18.23
2019-03-08T06:26:37.719Z,18.24
2019-03-08T06:29:04.662Z,18.25
2019-03-08T06:31:31.936Z,18.26
2019-03-08T06:33:59.270Z,18.28
2019-03-08T06:36:26.666Z,18.28
2019-03-08T06:38:53.638Z,18.31
2019-03-08T06:41:20.590Z,18.30
2019-03-08T06:43:47.567Z,18.27
2019-03-08T06:46:14.532Z,18.27
2019-03-08T06:48:42.238Z,18.28
2019-03-08T06:51:09.881Z,18.36
2019-03-08T06:53:36.834Z,18.43
2019-03-08T06:56:03.829Z,18.41
2019-03-08T06:58:30.817Z,18.41
2019-03-08T07:00:58.311Z,18.40
2019-03-08T07:03:25.362Z,18.41
2019-03-08T07:05:52.340Z,18.42
2019-03-08T07:08:19.473Z,18.48
2019-03-08T07:10:46.774Z,18.59
2019-03-08T07:13:14.073Z,18.66
2019-03-08T07:15:41.480Z,18.71
2019-03-08T07:18:12.612Z,18.83
2019-03-08T07:20:37.357Z,18.90
2019-03-08T07:23:04.497Z,18.78
2019-03-08T07:25:32.197Z,18.75
2019-03-08T07:27:59.138Z,18.68
2019-03-08T07:30:26.449Z,18.67
2019-03-08T07:32:53.392Z,18.73
2019-03-08T07:35:21.994Z,18.77
2019-03-08T07:37:49.322Z,18.92
2019-03-08T07:40:16.285Z,19.22
2019-03-08T07:42:45.078Z,19.33
2019-03-08T07:45:13.437Z,19.31
2019-03-08T07:47:40.377Z,19.24
2019-03-08T07:50:07.359Z,19.17
2019-03-08T07:52:34.353Z,19.17
2019-03-08T07:55:01.338Z,19.13
2019-03-08T07:57:28.657Z,19.09
2019-03-08T07:59:55.914Z,19.06
2019-03-08T08:02:23.282Z,19.09
2019-03-08T08:04:50.269Z,19.09
2019-03-08T08:07:17.589Z,19.02
2019-03-08T08:09:58.521Z,18.95
2019-03-08T08:12:27.625Z,18.95
2019-03-08T08:14:54.565Z,18.95
2019-03-08T08:17:21.527Z,18.96
2019-03-08T08:19:48.520Z,18.92
2019-03-08T08:22:15.487Z,18.89
2019-03-08T08:24:42.420Z,18.90
2019-03-08T08:27:09.739Z,18.79
2019-03-08T08:29:36.747Z,18.77
2019-03-08T08:32:03.851Z,18.76
2019-03-08T08:34:30.799Z,18.74
2019-03-08T08:36:58.184Z,18.77
2019-03-08T08:39:25.450Z,18.82
2019-03-08T08:41:52.521Z,18.86
2019-03-08T08:44:19.672Z,18.90
2019-03-08T08:46:46.643Z,18.94
2019-03-08T08:49:13.604Z,18.98
2019-03-08T08:51:40.543Z,18.95
2019-03-08T08:54:07.505Z,18.93
2019-03-08T08:56:34.503Z,18.90
2019-03-08T08:59:01.770Z,18.92
2019-03-08T09:01:29.022Z,18.92
2019-03-08T09:03:55.987Z,18.97
2019-03-08T09:06:22.947Z,19.00
2019-03-08T09:08:49.899Z,19.05
2019-03-08T09:11:16.867Z,19.06
2019-03-08T09:13:45.303Z,18.96
2019-03-08T09:16:12.247Z,18.85
2019-03-08T09:18:39.512Z,18.89
2019-03-08T09:21:06.862Z,18.95
2019-03-08T09:23:33.821Z,18.95
2019-03-08T09:26:00.783Z,18.94
2019-03-08T09:28:27.760Z,19.03
2019-03-08T09:30:55.018Z,19.05
2019-03-08T09:33:22.027Z,19.05
2019-03-08T09:35:49.322Z,18.98
2019-03-08T09:38:17.540Z,18.95
2019-03-08T09:40:45.828Z,18.96
2019-03-08T09:43:13.126Z,18.95
2019-03-08T09:45:40.030Z,19.00
2019-03-08T09:48:07.176Z,19.02
2019-03-08T09:50:34.605Z,19.02
2019-03-08T09:53:02.551Z,19.05
2019-03-08T09:55:29.931Z,19.06
2019-03-08T09:57:56.882Z,19.09
2019-03-08T10:00:24.234Z,19.10
2019-03-08T10:02:51.582Z,19.13
2019-03-08T10:05:18.537Z,19.13
2019-03-08T10:07:46.096Z,19.18
2019-03-08T10:10:13.075Z,19.20
2019-03-08T10:12:40.034Z,19.16
2019-03-08T10:15:06.988Z,19.18
2019-03-08T10:17:33.955Z,19.20
2019-03-08T10:20:00.902Z,19.14
2019-03-08T10:22:27.846Z,19.13
2019-03-08T10:24:55.176Z,19.15
2019-03-08T10:27:22.474Z,19.19
2019-03-08T10:29:49.736Z,19.23
2019-03-08T10:32:16.882Z,19.26
2019-03-08T10:34:44.127Z,19.27
2019-03-08T10:37:11.101Z,19.28
2019-03-08T10:39:38.611Z,19.30
2019-03-08T10:42:05.853Z,19.27
2019-03-08T10:44:32.801Z,19.27
2019-03-08T10:46:59.953Z,19.27
2019-03-08T10:49:27.116Z,19.33
2019-03-08T10:51:54.105Z,19.34
2019-03-08T10:54:22.160Z,19.39
2019-03-08T10:56:49.126Z,19.41
2019-03-08T10:59:16.205Z,19.39
2019-03-08T11:01:43.241Z,19.43
2019-03-08T11:04:10.193Z,19.50
2019-03-08T11:06:37.188Z,19.53
2019-03-08T11:09:04.535Z,19.43
2019-03-08T11:11:33.111Z,19.38
2019-03-08T11:14:00.115Z,19.36
2019-03-08T11:16:27.079Z,19.40
2019-03-08T11:18:54.346Z,19.44
2019-03-08T11:21:21.225Z,19.40
2019-03-08T11:23:48.175Z,19.38
2019-03-08T11:26:15.187Z,19.31
2019-03-08T11:28:42.467Z,19.20
2019-03-08T11:31:11.809Z,19.00
2019-03-08T11:33:38.777Z,18.93
2019-03-08T11:36:07.314Z,18.97
2019-03-08T11:38:34.849Z,18.92
2019-03-08T11:41:01.857Z,18.92
2019-03-08T11:43:28.902Z,18.91
2019-03-08T11:45:56.432Z,18.84
2019-03-08T11:48:25.215Z,18.83
2019-03-08T11:50:52.158Z,18.87
2019-03-08T11:53:19.224Z,18.94
2019-03-08T11:55:46.259Z,18.97
2019-03-08T11:58:13.181Z,19.03
2019-03-08T12:00:40.422Z,18.99
2019-03-08T12:03:08.076Z,18.81
2019-03-08T12:05:35.109Z,18.84
2019-03-08T12:08:02.072Z,18.90
2019-03-08T12:10:29.158Z,18.96
2019-03-08T12:12:57.084Z,19.02
2019-03-08T12:15:24.373Z,19.00
2019-03-08T12:17:51.336Z,18.99
2019-03-08T12:20:18.509Z,19.03
2019-03-08T12:22:45.806Z,18.99
2019-03-08T12:25:13.162Z,18.93
2019-03-08T12:27:40.605Z,18.93
2019-03-08T12:30:07.872Z,18.95
2019-03-08T12:32:34.870Z,18.99
2019-03-08T12:35:01.831Z,19.04
2019-03-08T12:37:29.108Z,19.04
2019-03-08T12:39:57.491Z,19.03
2019-03-08T12:42:24.763Z,19.05
2019-03-08T12:44:51.686Z,19.05
2019-03-08T12:47:18.707Z,19.08
2019-03-08T12:49:46.000Z,19.12
2019-03-08T12:52:13.649Z,19.13
2019-03-08T12:54:40.629Z,19.17
2019-03-08T12:57:07.897Z,19.19
2019-03-08T12:59:34.957Z,19.19
2019-03-08T13:02:02.269Z,19.20
2019-03-08T13:04:30.653Z,19.21
2019-03-08T13:06:57.614Z,19.23
2019-03-08T13:09:24.962Z,19.23
2019-03-08T13:11:52.324Z,19.26
2019-03-08T13:14:19.290Z,19.26
2019-03-08T13:16:46.634Z,19.26
2019-03-08T13:19:13.599Z,19.28
2019-03-08T13:21:40.505Z,19.27
2019-03-08T13:24:07.761Z,19.30
2019-03-08T13:26:35.790Z,19.27
2019-03-08T13:29:03.722Z,19.29
2019-03-08T13:31:31.067Z,19.29
2019-03-08T13:33:58.012Z,19.28
2019-03-08T13:36:25.000Z,19.26
2019-03-08T13:38:52.295Z,19.24
2019-03-08T13:41:19.559Z,19.20
2019-03-08T13:43:46.896Z,19.19
2019-03-08T13:46:13.907Z,19.16
2019-03-08T13:48:40.976Z,19.17
2019-03-08T13:51:07.889Z,19.18
2019-03-08T13:53:34.852Z,19.17
2019-03-08T13:56:02.239Z,19.23
2019-03-08T13:58:29.531Z,19.29
2019-03-08T14:00:56.504Z,19.29
2019-03-08T14:03:23.900Z,19.30
2019-03-08T14:05:51.130Z,19.37
2019-03-08T14:08:18.410Z,19.41
2019-03-08T14:10:45.415Z,19.37
2019-03-08T14:13:12.357Z,19.29
2019-03-08T14:15:40.468Z,19.31
2019-03-08T14:18:07.439Z,19.36
2019-03-08T14:20:34.431Z,19.40
2019-03-08T14:23:01.859Z,19.45
2019-03-08T14:25:28.858Z,19.47
2019-03-08T14:27:57.042Z,19.48
2019-03-08T14:30:26.761Z,19.49
2019-03-08T14:32:53.348Z,19.49
2019-03-08T14:35:20.295Z,19.48
2019-03-08T14:37:47.582Z,19.48
2019-03-08T14:40:17.135Z,19.49
2019-03-08T14:42:43.582Z,19.45
2019-03-08T14:45:10.556Z,19.31
2019-03-08T14:47:37.862Z,19.21
2019-03-08T14:50:06.898Z,19.16
2019-03-08T14:52:33.941Z,19.21
2019-03-08T14:55:01.234Z,19.22
2019-03-08T14:57:29.410Z,19.22
2019-03-08T14:59:57.054Z,19.19
2019-03-08T15:02:24.099Z,19.19
2019-03-08T15:04:51.351Z,19.21
2019-03-08T15:07:18.226Z,19.23
2019-03-08T15:09:45.601Z,19.24
2019-03-08T15:12:16.511Z,19.20
2019-03-08T15:14:41.171Z,19.12
2019-03-08T15:17:09.379Z,18.97
2019-03-08T15:19:40.302Z,18.81
2019-03-08T15:22:05.638Z,18.66
2019-03-08T15:24:38.256Z,18.48
2019-03-08T15:27:02.334Z,18.26
2019-03-08T15:29:31.602Z,18.07
2019-03-08T15:31:58.921Z,17.88
2019-03-08T15:34:25.902Z,17.79
2019-03-08T15:36:53.306Z,17.75
2019-03-08T15:39:20.693Z,17.72
2019-03-08T15:41:48.276Z,17.74
2019-03-08T15:44:15.230Z,17.75
2019-03-08T15:46:42.624Z,17.75
2019-03-08T15:49:09.883Z,17.73
2019-03-08T15:51:38.304Z,17.78
2019-03-08T15:54:07.007Z,17.80
2019-03-08T15:56:34.322Z,17.83
2019-03-08T15:59:03.332Z,17.83
2019-03-08T16:01:30.242Z,17.77
2019-03-08T16:03:57.290Z,17.71
2019-03-08T16:06:24.356Z,17.66
2019-03-08T16:08:51.606Z,17.66
2019-03-08T16:11:18.973Z,17.64
2019-03-08T16:13:46.026Z,17.66
2019-03-08T16:16:13.002Z,17.64
2019-03-08T16:18:43.508Z,17.70
2019-03-08T16:21:08.581Z,17.71
2019-03-08T16:23:35.944Z,17.72
2019-03-08T16:26:03.159Z,17.73
2019-03-08T16:28:30.489Z,17.69
2019-03-08T16:30:57.807Z,17.70
2019-03-08T16:33:25.180Z,17.68
2019-03-08T16:35:54.235Z,17.70
2019-03-08T16:38:21.130Z,17.74
2019-03-08T16:40:48.096Z,17.72
2019-03-08T16:43:15.048Z,17.75
2019-03-08T16:45:42.720Z,17.70
2019-03-08T16:48:11.044Z,17.69
2019-03-08T16:50:38.323Z,17.72
2019-03-08T16:53:06.347Z,17.71
2019-03-08T16:55:33.324Z,17.72
2019-03-08T16:58:01.680Z,17.75
2019-03-08T17:00:28.652Z,17.76
2019-03-08T17:02:55.975Z,17.77
2019-03-08T17:05:23.279Z,17.78
2019-03-08T17:07:50.628Z,17.77
2019-03-08T17:10:19.001Z,17.79
2019-03-08T17:12:46.040Z,17.75
2019-03-08T17:15:12.978Z,17.74
2019-03-08T17:17:40.206Z,17.73
2019-03-08T17:20:07.395Z,17.75
2019-03-08T17:22:34.300Z,17.76
2019-03-08T17:25:01.592Z,17.71
2019-03-08T17:27:28.581Z,17.67
2019-03-08T17:29:55.575Z,17.65
2019-03-08T17:32:22.517Z,17.65
2019-03-08T17:34:49.768Z,17.67
2019-03-08T17:37:16.747Z,17.67
2019-03-08T17:39:44.074Z,17.62
2019-03-08T17:42:11.019Z,17.57
2019-03-08T17:44:37.964Z,17.57
2019-03-08T17:47:06.035Z,17.54
2019-03-08T17:49:32.976Z,17.54
2019-03-08T17:52:00.040Z,17.47
2019-03-08T17:54:28.593Z,17.44
2019-03-08T17:56:57.294Z,17.44
2019-03-08T17:59:24.191Z,17.46
2019-03-08T18:01:51.506Z,17.43
2019-03-08T18:04:18.715Z,17.33
2019-03-08T18:06:45.690Z,17.29
2019-03-08T18:09:12.555Z,17.25
2019-03-08T18:11:39.525Z,17.18
2019-03-08T18:14:08.997Z,17.16
2019-03-08T18:16:36.570Z,17.15
2019-03-08T18:19:03.557Z,17.15
2019-03-08T18:21:31.864Z,17.17
2019-03-08T18:23:58.833Z,17.16
2019-03-08T18:26:26.062Z,17.17
2019-03-08T18:28:53.323Z,17.19
2019-03-08T18:31:23.492Z,17.21
2019-03-08T18:33:50.699Z,17.23
2019-03-08T18:36:17.938Z,17.19
2019-03-08T18:38:45.105Z,17.19
2019-03-08T18:41:12.361Z,17.19
2019-03-08T18:43:39.332Z,17.19
2019-03-08T18:46:06.270Z,17.21
2019-03-08T18:48:33.485Z,17.22
2019-03-08T18:51:00.482Z,17.22
2019-03-08T18:53:27.728Z,17.22
2019-03-08T18:55:54.704Z,17.20
2019-03-08T18:58:21.659Z,17.18
2019-03-08T19:00:49.682Z,17.17
2019-03-08T19:03:16.641Z,17.17
2019-03-08T19:05:43.605Z,17.12
2019-03-08T19:08:10.937Z,17.09
2019-03-08T19:10:37.894Z,17.04
2019-03-08T19:13:04.837Z,16.99
2019-03-08T19:15:31.803Z,16.93
2019-03-08T19:17:59.084Z,16.87
2019-03-08T19:20:25.989Z,16.93
2019-03-08T19:22:53.154Z,16.94
2019-03-08T19:25:21.090Z,16.98
2019-03-08T19:27:47.975Z,17.04
2019-03-08T19:30:18.499Z,17.07
2019-03-08T19:32:45.526Z,17.08
2019-03-08T19:35:12.845Z,17.10
2019-03-08T19:37:41.469Z,17.11
2019-03-08T19:40:08.784Z,17.09
2019-03-08T19:42:35.759Z,17.07
2019-03-08T19:45:02.982Z,17.09
2019-03-08T19:47:31.865Z,17.11
2019-03-08T19:50:00.327Z,17.10
2019-03-08T19:52:27.597Z,17.11
2019-03-08T19:54:55.022Z,17.11
2019-03-08T19:59:56.064Z,17.08
2019-03-08T20:02:24.667Z,17.02
2019-03-08T20:04:52.624Z,17.02
2019-03-08T20:07:20.027Z,17.02
2019-03-08T20:09:46.977Z,17.02
2019-03-08T20:12:14.310Z,17.04
2019-03-08T20:14:41.256Z,17.03
2019-03-08T20:17:08.228Z,17.00
2019-03-08T20:19:35.263Z,16.98
2019-03-08T20:22:02.253Z,16.97
2019-03-08T20:24:29.576Z,16.94
2019-03-08T20:26:56.673Z,16.91
2019-03-08T20:29:23.728Z,16.91
2019-03-08T20:31:50.797Z,16.88
2019-03-08T20:34:17.898Z,16.87
2019-03-08T20:36:45.192Z,16.82
2019-03-08T20:39:12.218Z,16.82
2019-03-08T20:41:39.515Z,16.82
2019-03-08T20:44:06.691Z,16.81
2019-03-08T20:46:35.170Z,16.78
2019-03-08T20:49:02.814Z,16.75
2019-03-08T20:51:29.848Z,16.72
2019-03-08T20:53:56.743Z,16.67
2019-03-08T20:56:24.055Z,16.67
2019-03-08T20:58:51.015Z,16.68
2019-03-08T21:01:18.357Z,16.69
2019-03-08T21:03:45.476Z,16.64
2019-03-08T21:06:12.373Z,16.62
2019-03-08T21:08:39.313Z,16.61
2019-03-08T21:11:06.440Z,16.63
2019-03-08T21:13:33.415Z,16.63
2019-03-08T21:16:01.377Z,16.61
2019-03-08T21:18:28.507Z,16.59
2019-03-08T21:20:55.470Z,16.58
2019-03-08T21:23:22.706Z,16.53
2019-03-08T21:25:51.081Z,16.51
2019-03-08T21:28:18.375Z,16.47
2019-03-08T21:30:45.570Z,16.40
2019-03-08T21:33:14.341Z,16.36
2019-03-08T21:35:41.500Z,16.34
2019-03-08T21:38:09.659Z,16.33
2019-03-08T21:40:36.919Z,16.34
2019-03-08T21:43:03.882Z,16.30
2019-03-08T21:45:30.862Z,16.26
2019-03-08T21:47:58.045Z,16.26
2019-03-08T21:50:24.986Z,16.26
2019-03-08T21:52:52.017Z,16.27
2019-03-08T21:55:18.894Z,16.28
2019-03-08T21:57:46.303Z,16.29
2019-03-08T22:00:13.561Z,16.30
2019-03-08T22:02:41.173Z,16.32
2019-03-08T22:05:08.111Z,16.34
2019-03-08T22:07:35.462Z,16.40
2019-03-08T22:10:02.397Z,16.43
2019-03-08T22:12:30.549Z,16.43
2019-03-08T22:14:57.785Z,16.47
2019-03-08T22:17:25.038Z,16.51
2019-03-08T22:19:51.989Z,16.52
2019-03-08T22:22:19.290Z,16.55
2019-03-08T22:24:46.494Z,16.58
2019-03-08T22:27:14.853Z,16.57
2019-03-08T22:29:41.782Z,16.60
2019-03-08T22:32:09.255Z,16.63
2019-03-08T22:34:36.431Z,16.64
2019-03-08T22:37:03.414Z,16.65
2019-03-08T22:39:30.382Z,16.65
2019-03-08T22:41:57.328Z,16.62
2019-03-08T22:44:24.293Z,16.64
2019-03-08T22:46:51.568Z,16.64
2019-03-08T22:49:18.614Z,16.63
2019-03-08T22:51:47.505Z,16.60
2019-03-08T22:54:14.489Z,16.56
2019-03-08T22:56:41.427Z,16.58
2019-03-08T22:59:08.758Z,16.60
2019-03-08T23:01:36.002Z,16.62
2019-03-08T23:04:02.968Z,16.63
2019-03-08T23:06:29.998Z,16.62
2019-03-08T23:08:57.247Z,16.63
2019-03-08T23:11:24.199Z,16.63
2019-03-08T23:13:51.443Z,16.65
2019-03-08T23:16:18.333Z,16.66
2019-03-08T23:18:45.764Z,16.66
2019-03-08T23:21:12.812Z,16.67
2019-03-08T23:23:40.048Z,16.68
2019-03-08T23:26:06.950Z,16.65
2019-03-08T23:28:33.973Z,16.64
2019-03-08T23:31:00.941Z,16.64
2019-03-08T23:33:28.143Z,16.64
2019-03-08T23:35:55.086Z,16.66
2019-03-08T23:38:21.977Z,16.67
2019-03-08T23:40:48.984Z,16.67
2019-03-08T23:43:17.012Z,16.70
2019-03-08T23:45:43.973Z,16.71
2019-03-08T23:48:10.938Z,16.71
2019-03-08T23:50:38.089Z,16.70
2019-03-08T23:53:05.340Z,16.70
2019-03-08T23:55:32.603Z,16.72
2019-03-08T23:57:59.850Z,16.77
